Terminal Aerodrome Forecast
Issued by NWS

Home | Current Version | Previous Version | Text Only | Print | Product List | Glossary On
Versions: 1 2 3 4 5 6 7 8 9 10 11 12 13 14 15 16 17 18 19 20 21 22 23 24 25 26 27 28 29 30 31 32
534
FTUS43 KPAH 042320
TAFOWB
TAF
KOWB 042320Z 0500/0524 27007KT 2SM -RA BR OVC004
      TEMPO 0501/0505 3/4SM -DZ BR SCT004 OVC012
     FM050500 VRB03KT P6SM OVC030
     FM050900 30002KT 1/2SM FG VV007
     FM051400 07005KT 4SM BR OVC040
     FM052000 10007KT P6SM SCT040=

USA.gov is the U.S. government's official web portal to all federal, state and local government web resources and services.